Time;durP1;ratioP1;P1;durP2;ratioP2;P2;SDS_P1;SDS_P2;PMS_P1;PMS_P2;Temp;Humidity;BMP_temperature;BMP_pressure;BME280_temperature;BME280_humidity;BME280_pressure;Samples;Min_cycle;Max_cycle;Signal;HPM_P1;HPM_P2
2022/04/18 00:01:49;;;;;;;13.00;1.90;;;;;;;;;;5048800;28;20036;-81
2022/04/18 00:04:14;;;;;;;11.10;1.42;;;;;;;;;;5074289;28;20036;-81
2022/04/18 00:06:40;;;;;;;14.85;1.88;;;;;;;;;;5067604;28;20592;-81
2022/04/18 00:09:06;;;;;;;11.20;2.05;;;;;;;;;;5073893;28;20052;-81
2022/04/18 00:11:32;;;;;;;11.82;1.80;;;;;;;;;;5067675;28;20056;-81
2022/04/18 00:13:58;;;;;;;8.40;1.90;;;;;;;;;;5057007;28;20032;-81
2022/04/18 00:16:24;;;;;;;9.82;1.60;;;;;;;;;;5039076;28;20508;-79
2022/04/18 00:18:52;;;;;;;27.80;4.22;;;;;;;;;;5067664;28;20040;-81
2022/04/18 00:21:18;;;;;;;8.52;1.75;;;;;;;;;;5066221;28;20394;-80
2022/04/18 00:23:45;;;;;;;10.52;1.92;;;;;;;;;;5064741;28;20047;-80
2022/04/18 00:26:11;;;;;;;16.60;2.17;;;;;;;;;;5066259;28;20364;-81
2022/04/18 00:28:36;;;;;;;12.35;1.60;;;;;;;;;;5066991;28;20059;-80
2022/04/18 00:31:02;;;;;;;15.60;1.33;;;;;;;;;;5052478;28;20652;-81
2022/04/18 00:33:27;;;;;;;13.35;1.55;;;;;;;;;;5071008;28;20036;-81
2022/04/18 00:35:53;;;;;;;14.90;1.33;;;;;;;;;;5069838;28;20123;-80
2022/04/18 00:38:19;;;;;;;13.70;1.60;;;;;;;;;;5073634;28;20436;-81
2022/04/18 00:40:45;;;;;;;13.68;1.55;;;;;;;;;;5067491;28;20028;-81
2022/04/18 00:43:10;;;;;;;16.10;1.85;;;;;;;;;;5072996;28;20414;-81
2022/04/18 00:45:36;;;;;;;9.93;1.75;;;;;;;;;;5065405;28;20029;-81
2022/04/18 00:48:02;;;;;;;23.05;2.13;;;;;;;;;;5064932;28;20043;-81
2022/04/18 00:50:31;;;;;;;22.00;3.00;;;;;;;;;;5060755;28;20031;-81
2022/04/18 00:52:57;;;;;;;11.77;1.75;;;;;;;;;;5068774;28;20711;-76
2022/04/18 00:55:24;;;;;;;9.63;1.65;;;;;;;;;;5068483;28;20035;-76
2022/04/18 00:57:52;;;;;;;15.27;1.90;;;;;;;;;;5065579;28;20025;-75
2022/04/18 01:00:18;;;;;;;14.43;2.08;;;;;;;;;;5066353;28;20023;-76
2022/04/18 01:02:44;;;;;;;12.63;1.80;;;;;;;;;;5069378;28;20502;-76
2022/04/18 01:05:09;;;;;;;17.20;1.83;;;;;;;;;;5069161;28;20074;-75
2022/04/18 01:07:36;;;;;;;21.70;2.05;;;;;;;;;;5062194;28;20039;-75
2022/04/18 01:10:04;;;;;;;16.30;1.88;;;;;;;;;;5066014;28;20030;-76
2022/04/18 01:12:29;;;;;;;10.95;1.90;;;;;;;;;;5066962;28;20576;-76
2022/04/18 01:14:55;;;;;;;16.90;3.22;;;;;;;;;;5065607;28;20101;-75
2022/04/18 01:17:20;;;;;;;9.40;1.73;;;;;;;;;;5064668;28;20036;-76
2022/04/18 01:19:46;;;;;;;12.05;1.77;;;;;;;;;;5034053;28;20506;-76
2022/04/18 01:22:15;;;;;;;14.48;1.80;;;;;;;;;;5067381;28;20033;-76
2022/04/18 01:30:11;;;;;;;13.95;2.10;;;;;;;;;;5062099;28;20241;-76
2022/04/18 01:32:37;;;;;;;5.47;1.63;;;;;;;;;;5049557;28;20120;-76
2022/04/18 01:35:03;;;;;;;11.10;1.63;;;;;;;;;;5065872;28;20046;-76
2022/04/18 01:37:29;;;;;;;16.25;1.45;;;;;;;;;;5069677;28;20056;-76
2022/04/18 01:39:55;;;;;;;16.48;2.60;;;;;;;;;;5069853;28;20070;-75
2022/04/18 01:42:21;;;;;;;6.15;1.42;;;;;;;;;;5065976;28;20093;-76
2022/04/18 01:44:46;;;;;;;10.70;2.17;;;;;;;;;;5046603;28;20028;-75
2022/04/18 01:47:12;;;;;;;19.10;1.63;;;;;;;;;;5064258;28;20037;-76
2022/04/18 01:49:37;;;;;;;5.13;1.73;;;;;;;;;;5034385;28;20029;-76
2022/04/18 01:52:03;;;;;;;14.90;1.92;;;;;;;;;;5048345;28;20064;-76
2022/04/18 01:54:29;;;;;;;7.82;2.20;;;;;;;;;;5048142;28;20490;-76
2022/04/18 01:56:54;;;;;;;7.93;1.90;;;;;;;;;;5068674;28;20033;-76
2022/04/18 01:59:20;;;;;;;12.23;2.30;;;;;;;;;;5030230;28;20592;-76
2022/04/18 02:01:45;;;;;;;11.85;1.90;;;;;;;;;;5047560;28;20032;-76
2022/04/18 02:04:11;;;;;;;16.58;2.38;;;;;;;;;;5080147;28;20040;-76
2022/04/18 02:06:36;;;;;;;6.57;1.67;;;;;;;;;;5074515;28;20072;-76
2022/04/18 02:09:02;;;;;;;19.85;3.38;;;;;;;;;;5055500;28;20055;-76
2022/04/18 02:11:28;;;;;;;19.88;2.22;;;;;;;;;;5071436;28;20047;-76
2022/04/18 02:13:53;;;;;;;10.52;1.80;;;;;;;;;;5074279;28;20498;-76
2022/04/18 02:16:20;;;;;;;11.75;2.50;;;;;;;;;;5056006;28;20670;-76
2022/04/18 02:18:46;;;;;;;20.10;1.80;;;;;;;;;;5069508;28;20029;-76
2022/04/18 02:21:12;;;;;;;10.88;2.00;;;;;;;;;;5055427;28;20039;-75
2022/04/18 02:23:39;;;;;;;15.25;2.03;;;;;;;;;;5072304;28;20037;-76
2022/04/18 02:26:04;;;;;;;9.93;1.63;;;;;;;;;;5065897;28;20052;-81
2022/04/18 02:28:31;;;;;;;16.17;2.33;;;;;;;;;;5066161;28;20040;-81
2022/04/18 02:30:57;;;;;;;16.95;2.28;;;;;;;;;;5069622;28;20296;-81
2022/04/18 02:33:23;;;;;;;25.08;2.25;;;;;;;;;;5085107;28;20024;-81
2022/04/18 02:35:48;;;;;;;13.75;2.72;;;;;;;;;;5068749;28;20489;-81
2022/04/18 02:38:14;;;;;;;15.35;2.10;;;;;;;;;;5052641;28;20055;-81
2022/04/18 02:40:40;;;;;;;14.15;1.70;;;;;;;;;;5072755;28;20402;-81
2022/04/18 02:43:06;;;;;;;12.13;1.60;;;;;;;;;;5072688;28;20622;-81
2022/04/18 02:45:32;;;;;;;15.43;2.35;;;;;;;;;;5066273;28;20033;-81
2022/04/18 02:47:58;;;;;;;11.30;2.20;;;;;;;;;;5072135;28;20041;-80
2022/04/18 02:50:24;;;;;;;18.63;2.65;;;;;;;;;;5065197;28;20055;-81
2022/04/18 02:52:50;;;;;;;18.17;2.40;;;;;;;;;;5067850;28;20020;-81
2022/04/18 02:55:15;;;;;;;15.85;2.70;;;;;;;;;;5069239;28;20025;-80
2022/04/18 02:57:41;;;;;;;18.25;3.38;;;;;;;;;;5035043;28;20029;-81
2022/04/18 03:00:09;;;;;;;20.67;3.03;;;;;;;;;;5065681;28;20040;-81
2022/04/18 03:02:35;;;;;;;12.45;1.95;;;;;;;;;;5070823;28;20051;-80
2022/04/18 03:05:01;;;;;;;8.15;1.95;;;;;;;;;;5072568;28;20039;-81
2022/04/18 03:07:26;;;;;;;13.90;2.60;;;;;;;;;;5065925;28;20028;-80
2022/04/18 03:09:52;;;;;;;5.25;1.70;;;;;;;;;;5046059;28;20064;-81
2022/04/18 03:12:17;;;;;;;24.35;2.30;;;;;;;;;;5084398;28;20024;-81
2022/04/18 03:14:43;;;;;;;11.35;2.25;;;;;;;;;;5071431;28;20112;-82
2022/04/18 03:17:09;;;;;;;11.00;2.22;;;;;;;;;;5068777;28;20040;-80
2022/04/18 03:19:35;;;;;;;10.93;1.83;;;;;;;;;;5065009;28;20063;-81
2022/04/18 03:22:00;;;;;;;15.30;1.83;;;;;;;;;;5074786;28;20040;-80
2022/04/18 03:24:26;;;;;;;13.85;1.98;;;;;;;;;;5076239;28;20491;-75
2022/04/18 03:26:52;;;;;;;9.27;1.63;;;;;;;;;;5073420;28;20020;-75
2022/04/18 03:29:18;;;;;;;10.60;1.73;;;;;;;;;;5070260;28;20036;-76
2022/04/18 03:31:44;;;;;;;22.63;3.75;;;;;;;;;;5069849;28;20029;-76
2022/04/18 03:34:09;;;;;;;13.63;2.03;;;;;;;;;;5054495;28;20044;-76
2022/04/18 03:42:03;;;;;;;12.02;2.40;;;;;;;;;;5049003;28;20039;-75
2022/04/18 03:44:29;;;;;;;8.00;1.45;;;;;;;;;;5062872;28;20033;-76
2022/04/18 03:46:54;;;;;;;10.85;1.63;;;;;;;;;;5067648;28;20028;-75
2022/04/18 03:49:20;;;;;;;12.77;2.25;;;;;;;;;;5049843;28;20047;-75
2022/04/18 03:51:46;;;;;;;14.90;2.20;;;;;;;;;;5068846;28;20036;-76
2022/04/18 03:54:11;;;;;;;26.70;2.17;;;;;;;;;;5053954;28;20093;-76
2022/04/18 03:56:37;;;;;;;22.33;2.15;;;;;;;;;;5053621;28;20035;-76
2022/04/18 03:59:03;;;;;;;19.48;2.00;;;;;;;;;;5068801;28;20032;-76
2022/04/18 04:01:28;;;;;;;16.38;2.58;;;;;;;;;;5070203;28;20505;-76
2022/04/18 04:03:54;;;;;;;13.25;1.73;;;;;;;;;;5056767;28;20253;-77
2022/04/18 04:06:19;;;;;;;12.23;2.17;;;;;;;;;;5050067;28;20040;-75
2022/04/18 04:08:44;;;;;;;16.23;2.03;;;;;;;;;;5066015;28;20089;-76
2022/04/18 04:11:11;;;;;;;14.55;2.30;;;;;;;;;;5066255;28;20039;-76
2022/04/18 04:13:36;;;;;;;22.17;2.08;;;;;;;;;;5079363;28;20028;-75
2022/04/18 04:16:02;;;;;;;13.32;2.10;;;;;;;;;;5068216;28;20052;-76
2022/04/18 04:18:27;;;;;;;19.60;1.90;;;;;;;;;;5044317;28;20423;-76
2022/04/18 04:20:53;;;;;;;14.25;1.85;;;;;;;;;;5066158;28;20050;-76
2022/04/18 04:23:18;;;;;;;15.13;1.65;;;;;;;;;;5084900;28;20077;-75
2022/04/18 04:25:44;;;;;;;17.85;2.80;;;;;;;;;;5062641;28;20342;-76
2022/04/18 04:28:11;;;;;;;13.27;1.88;;;;;;;;;;5042669;28;20044;-75
2022/04/18 04:30:36;;;;;;;13.55;2.30;;;;;;;;;;5059188;28;20041;-76
2022/04/18 04:33:02;;;;;;;10.25;1.85;;;;;;;;;;5069302;28;20513;-76
2022/04/18 04:35:27;;;;;;;12.25;1.65;;;;;;;;;;5060956;28;20384;-75
2022/04/18 04:37:53;;;;;;;9.02;2.63;;;;;;;;;;5068824;28;20121;-75
2022/04/18 04:40:18;;;;;;;12.50;2.08;;;;;;;;;;5059109;28;20388;-75
2022/04/18 04:42:44;;;;;;;21.27;2.45;;;;;;;;;;5033297;28;20037;-76
2022/04/18 04:45:09;;;;;;;11.05;1.77;;;;;;;;;;5055910;28;20039;-75
2022/04/18 04:47:35;;;;;;;16.63;2.15;;;;;;;;;;5050318;28;20044;-76
2022/04/18 04:50:00;;;;;;;13.40;2.38;;;;;;;;;;5048750;28;20024;-76
2022/04/18 04:52:26;;;;;;;19.27;2.78;;;;;;;;;;5044576;28;20052;-76
2022/04/18 04:54:52;;;;;;;19.50;2.80;;;;;;;;;;5048630;28;20090;-76
2022/04/18 04:57:17;;;;;;;12.45;2.15;;;;;;;;;;5048911;28;20094;-76
2022/04/18 04:59:43;;;;;;;12.20;2.13;;;;;;;;;;5052146;28;20823;-75
2022/04/18 05:02:08;;;;;;;24.08;2.47;;;;;;;;;;5063553;28;20483;-76
2022/04/18 05:04:34;;;;;;;10.60;2.00;;;;;;;;;;5065479;28;20024;-81
2022/04/18 05:06:59;;;;;;;17.25;3.03;;;;;;;;;;5068617;28;20033;-81
2022/04/18 05:09:25;;;;;;;13.43;2.65;;;;;;;;;;5047584;28;20036;-81
2022/04/18 05:11:52;;;;;;;13.02;2.65;;;;;;;;;;5041084;28;20509;-81
2022/04/18 05:14:18;;;;;;;12.25;3.35;;;;;;;;;;5065445;28;20441;-81
2022/04/18 05:16:44;;;;;;;12.88;2.45;;;;;;;;;;5066918;28;20028;-81
2022/04/18 05:19:09;;;;;;;9.60;2.15;;;;;;;;;;5052296;28;20036;-81
2022/04/18 05:21:35;;;;;;;12.25;2.47;;;;;;;;;;5066223;28;20394;-81
2022/04/18 05:24:01;;;;;;;15.40;3.17;;;;;;;;;;5071241;28;20115;-81
2022/04/18 05:26:27;;;;;;;15.35;2.78;;;;;;;;;;5072684;28;20054;-81
2022/04/18 05:28:52;;;;;;;16.77;2.67;;;;;;;;;;5046963;28;20131;-82
2022/04/18 05:31:19;;;;;;;9.20;2.03;;;;;;;;;;5068473;28;20029;-81
2022/04/18 05:33:45;;;;;;;21.83;2.58;;;;;;;;;;5068516;28;20033;-75
2022/04/18 05:36:10;;;;;;;10.93;2.00;;;;;;;;;;5072782;28;20457;-76
2022/04/18 05:38:36;;;;;;;23.55;2.38;;;;;;;;;;5063555;28;20033;-76
2022/04/18 05:41:02;;;;;;;16.45;3.63;;;;;;;;;;5064453;28;20551;-76
2022/04/18 05:43:28;;;;;;;10.70;2.42;;;;;;;;;;5065967;28;20411;-75
2022/04/18 05:45:54;;;;;;;8.82;2.13;;;;;;;;;;5064970;28;20419;-76
2022/04/18 05:48:19;;;;;;;14.48;2.58;;;;;;;;;;5081463;28;20032;-75
2022/04/18 05:50:45;;;;;;;15.68;2.35;;;;;;;;;;5065025;28;20115;-75
2022/04/18 05:53:15;;;;;;;6.55;2.30;;;;;;;;;;5064734;28;20484;-75
2022/04/18 05:55:42;;;;;;;6.90;1.90;;;;;;;;;;5064671;28;20040;-76
2022/04/18 05:58:07;;;;;;;17.75;3.25;;;;;;;;;;5068755;28;20051;-75
2022/04/18 06:00:34;;;;;;;27.45;2.28;;;;;;;;;;5063879;28;20063;-75
2022/04/18 06:03:01;;;;;;;11.63;2.60;;;;;;;;;;5066581;28;20024;-75
2022/04/18 06:05:27;;;;;;;14.40;2.63;;;;;;;;;;5062660;28;20111;-76
2022/04/18 06:07:53;;;;;;;13.05;2.15;;;;;;;;;;5045450;28;20159;-76
2022/04/18 06:10:18;;;;;;;15.30;2.10;;;;;;;;;;5066985;28;20025;-76
2022/04/18 06:12:44;;;;;;;14.15;2.42;;;;;;;;;;5067073;28;20032;-76
2022/04/18 06:15:10;;;;;;;15.23;2.28;;;;;;;;;;5065837;28;20126;-76
2022/04/18 06:17:35;;;;;;;16.45;3.20;;;;;;;;;;5045162;28;20032;-76
2022/04/18 06:20:04;;;;;;;16.98;2.42;;;;;;;;;;5078332;28;20032;-75
2022/04/18 06:22:30;;;;;;;18.40;2.92;;;;;;;;;;5079728;28;20029;-76
2022/04/18 06:24:56;;;;;;;14.75;3.17;;;;;;;;;;5066636;28;20047;-76
2022/04/18 06:27:21;;;;;;;17.88;3.00;;;;;;;;;;5051691;28;20036;-76
2022/04/18 06:29:47;;;;;;;7.90;2.30;;;;;;;;;;5068270;28;20033;-76
2022/04/18 06:32:13;;;;;;;12.35;2.70;;;;;;;;;;5066173;28;20033;-81
2022/04/18 06:34:39;;;;;;;10.82;2.78;;;;;;;;;;5055623;28;20036;-81
2022/04/18 06:37:04;;;;;;;22.83;2.95;;;;;;;;;;5062266;28;20452;-80
2022/04/18 06:39:30;;;;;;;22.77;3.28;;;;;;;;;;5083850;28;20035;-80
2022/04/18 06:41:55;;;;;;;16.35;2.70;;;;;;;;;;5065593;28;20035;-80
2022/04/18 06:44:21;;;;;;;11.18;2.42;;;;;;;;;;5080379;28;20580;-85
2022/04/18 06:46:46;;;;;;;10.38;2.08;;;;;;;;;;5064950;28;20067;-80
2022/04/18 06:49:12;;;;;;;26.02;2.65;;;;;;;;;;5070016;28;20020;-80
2022/04/18 06:51:37;;;;;;;10.93;2.53;;;;;;;;;;5051318;28;20028;-80
2022/04/18 06:54:03;;;;;;;19.67;2.60;;;;;;;;;;5070039;28;20040;-74
2022/04/18 06:59:13;;;;;;;21.40;2.47;;;;;;;;;;5067130;28;20067;-74
2022/04/18 07:01:38;;;;;;;9.90;2.35;;;;;;;;;;5064158;28;20025;-74
2022/04/18 07:04:04;;;;;;;12.68;2.40;;;;;;;;;;5063562;28;20512;-74
2022/04/18 07:06:30;;;;;;;10.88;2.40;;;;;;;;;;5061806;28;20036;-74
2022/04/18 07:08:55;;;;;;;11.88;2.67;;;;;;;;;;5069779;28;20032;-76
2022/04/18 07:11:21;;;;;;;16.15;2.85;;;;;;;;;;5050847;28;20032;-74
2022/04/18 07:13:46;;;;;;;13.10;2.65;;;;;;;;;;5072058;28;20036;-75
2022/04/18 07:16:12;;;;;;;18.05;2.88;;;;;;;;;;5064775;28;20032;-76
2022/04/18 07:18:37;;;;;;;13.75;2.38;;;;;;;;;;5050341;28;20024;-76
2022/04/18 07:21:03;;;;;;;23.45;3.15;;;;;;;;;;5078131;28;20681;-76
2022/04/18 07:23:29;;;;;;;14.05;2.53;;;;;;;;;;5048620;28;20060;-76
2022/04/18 07:25:55;;;;;;;20.75;3.13;;;;;;;;;;5050388;28;20056;-75
2022/04/18 07:28:21;;;;;;;21.73;3.00;;;;;;;;;;5070898;28;20698;-76
2022/04/18 07:30:46;;;;;;;12.35;2.20;;;;;;;;;;5055398;28;20040;-75
2022/04/18 07:33:14;;;;;;;17.77;2.28;;;;;;;;;;5084547;28;20497;-81
2022/04/18 07:35:40;;;;;;;16.45;2.10;;;;;;;;;;5064080;28;20487;-81
2022/04/18 07:40:49;;;;;;;17.52;2.22;;;;;;;;;;5083573;28;20089;-80
2022/04/18 07:43:15;;;;;;;14.05;2.08;;;;;;;;;;5069863;28;20115;-81
2022/04/18 07:45:40;;;;;;;17.30;2.30;;;;;;;;;;5062172;28;20044;-81
2022/04/18 07:48:09;;;;;;;13.20;2.00;;;;;;;;;;5072018;28;20035;-81
2022/04/18 07:53:20;;;;;;;17.77;2.22;;;;;;;;;;5068870;28;20103;-81
2022/04/18 07:55:46;;;;;;;11.55;2.10;;;;;;;;;;5065456;28;20139;-81
2022/04/18 07:58:11;;;;;;;13.85;2.28;;;;;;;;;;5084092;28;20031;-80
2022/04/18 08:00:37;;;;;;;16.20;2.13;;;;;;;;;;5065610;28;20041;-80
2022/04/18 08:03:03;;;;;;;16.05;1.83;;;;;;;;;;5057804;28;20077;-80
2022/04/18 08:05:28;;;;;;;15.05;2.13;;;;;;;;;;5046057;28;20028;-80
2022/04/18 08:07:54;;;;;;;16.48;2.25;;;;;;;;;;5068551;28;20032;-80
2022/04/18 08:10:19;;;;;;;11.10;2.22;;;;;;;;;;5066825;28;20035;-80
2022/04/18 08:12:45;;;;;;;10.57;2.30;;;;;;;;;;5067643;28;20028;-80
2022/04/18 08:15:10;;;;;;;14.15;1.85;;;;;;;;;;5069576;28;20509;-81
2022/04/18 08:17:36;;;;;;;12.98;1.75;;;;;;;;;;5066220;28;20028;-80
2022/04/18 08:20:02;;;;;;;14.57;2.25;;;;;;;;;;5067920;28;20095;-80
2022/04/18 08:22:28;;;;;;;16.58;2.63;;;;;;;;;;5067313;28;20406;-81
2022/04/18 08:24:53;;;;;;;20.48;2.38;;;;;;;;;;5068315;28;20052;-80
2022/04/18 08:27:19;;;;;;;16.20;1.58;;;;;;;;;;5068193;28;20690;-81
2022/04/18 08:29:46;;;;;;;15.90;1.35;;;;;;;;;;5069311;28;20491;-81
2022/04/18 08:32:11;;;;;;;11.32;1.73;;;;;;;;;;5066053;28;20055;-80
2022/04/18 08:34:37;;;;;;;16.33;1.83;;;;;;;;;;5073253;28;20483;-75
2022/04/18 08:37:03;;;;;;;20.67;1.88;;;;;;;;;;5063238;28;20033;-75
2022/04/18 08:39:28;;;;;;;13.25;1.48;;;;;;;;;;5062805;28;20054;-76
2022/04/18 08:41:58;;;;;;;25.02;2.33;;;;;;;;;;5068226;28;20035;-75
2022/04/18 08:44:25;;;;;;;12.30;1.77;;;;;;;;;;5068742;28;20496;-76
2022/04/18 08:46:52;;;;;;;21.33;1.98;;;;;;;;;;5067290;28;20082;-75
2022/04/18 08:54:47;;;;;;;13.13;1.85;;;;;;;;;;5063854;28;20107;-76
2022/04/18 08:57:13;;;;;;;12.27;1.38;;;;;;;;;;5049931;28;20027;-76
2022/04/18 08:59:39;;;;;;;11.50;1.95;;;;;;;;;;5066947;28;20660;-75
2022/04/18 09:02:04;;;;;;;15.98;1.40;;;;;;;;;;5065403;28;20025;-76
2022/04/18 09:04:30;;;;;;;21.30;1.88;;;;;;;;;;5069753;28;20044;-80
2022/04/18 09:06:55;;;;;;;18.85;1.83;;;;;;;;;;5065073;28;20442;-80
2022/04/18 09:09:28;;;;;;;3.42;0.95;;;;;;;;;;5064840;28;20055;-81
2022/04/18 09:11:54;;;;;;;12.35;1.70;;;;;;;;;;5065149;28;20028;-80
2022/04/18 09:14:19;;;;;;;10.88;1.73;;;;;;;;;;5068801;28;20410;-80
2022/04/18 09:16:45;;;;;;;15.68;1.10;;;;;;;;;;5068574;28;20570;-80
2022/04/18 09:19:12;;;;;;;16.83;1.83;;;;;;;;;;5065838;28;20040;-80
2022/04/18 09:22:05;;;;;;;16.08;1.52;;;;;;;;;;5066710;28;20024;-80
2022/04/18 09:24:36;;;;;;;10.40;1.95;;;;;;;;;;5047103;28;20430;-80
2022/04/18 09:27:25;;;;;;;12.43;1.10;;;;;;;;;;5065323;28;20115;-80
2022/04/18 09:30:10;;;;;;;20.13;2.78;;;;;;;;;;5067295;28;20032;-80
2022/04/18 09:32:38;;;;;;;13.13;2.25;;;;;;;;;;5068188;28;20013;-80
2022/04/18 09:35:05;;;;;;;14.23;1.40;;;;;;;;;;5049912;28;20040;-81
2022/04/18 09:37:32;;;;;;;20.42;1.50;;;;;;;;;;5068889;28;20379;-81
2022/04/18 09:39:58;;;;;;;4.40;0.98;;;;;;;;;;5071786;28;20036;-81
2022/04/18 09:42:28;;;;;;;13.35;1.80;;;;;;;;;;5066168;28;20021;-80
2022/04/18 09:44:54;;;;;;;9.00;1.25;;;;;;;;;;5067004;28;20067;-81
2022/04/18 09:47:22;;;;;;;16.25;1.85;;;;;;;;;;5065166;28;20056;-81
2022/04/18 09:49:48;;;;;;;16.02;2.38;;;;;;;;;;5050077;28;20031;-82
2022/04/18 09:52:19;;;;;;;13.73;1.40;;;;;;;;;;5064361;28;20000;-82
2022/04/18 09:54:55;;;;;;;8.70;1.25;;;;;;;;;;5066248;28;20033;-81
2022/04/18 09:57:27;;;;;;;8.52;1.48;;;;;;;;;;5065271;28;20218;-80
2022/04/18 09:59:54;;;;;;;13.38;1.48;;;;;;;;;;5059005;28;20049;-80
2022/04/18 10:02:20;;;;;;;11.85;1.63;;;;;;;;;;5082701;28;20036;-80
2022/04/18 10:04:49;;;;;;;17.58;1.92;;;;;;;;;;5061629;28;20024;-81
2022/04/18 10:07:15;;;;;;;10.98;1.02;;;;;;;;;;5049435;28;20032;-80
2022/04/18 10:09:42;;;;;;;10.90;1.85;;;;;;;;;;5081101;28;20176;-80
2022/04/18 10:12:09;;;;;;;9.77;1.27;;;;;;;;;;5067333;28;20039;-81
2022/04/18 10:14:36;;;;;;;9.85;1.67;;;;;;;;;;5066622;28;20021;-80
2022/04/18 10:17:02;;;;;;;7.93;1.25;;;;;;;;;;5077540;28;20052;-81
2022/04/18 10:19:56;;;;;;;12.10;1.80;;;;;;;;;;5066309;28;20032;-81
2022/04/18 10:22:32;;;;;;;8.63;1.08;;;;;;;;;;5066038;28;20017;-81
2022/04/18 10:25:11;;;;;;;40.80;2.20;;;;;;;;;;5085266;28;20124;-81
2022/04/18 10:27:37;;;;;;;10.10;1.10;;;;;;;;;;5071019;28;20028;-80
2022/04/18 10:30:04;;;;;;;8.32;1.00;;;;;;;;;;5069159;28;20107;-79
2022/04/18 10:32:31;;;;;;;9.43;1.13;;;;;;;;;;5069434;28;20032;-80
2022/04/18 10:35:03;;;;;;;2.90;0.55;;;;;;;;;;5070813;28;20025;-80
2022/04/18 10:37:29;;;;;;;6.70;0.93;;;;;;;;;;5064331;28;20499;-80
2022/04/18 10:40:06;;;;;;;7.20;0.90;;;;;;;;;;5054377;28;20083;-79
2022/04/18 10:42:42;;;;;;;5.63;0.85;;;;;;;;;;5063985;28;20486;-80
2022/04/18 10:45:27;;;;;;;5.20;1.52;;;;;;;;;;5083761;28;20036;-81
2022/04/18 10:47:56;;;;;;;3.00;1.00;;;;;;;;;;5070931;28;20103;-80
2022/04/18 10:50:24;;;;;;;2.80;1.10;;;;;;;;;;5069390;28;20027;-81
2022/04/18 10:53:18;;;;;;;8.90;1.35;;;;;;;;;;5069774;28;20494;-81
2022/04/18 10:55:53;;;;;;;8.32;1.35;;;;;;;;;;5068278;28;20040;-80
2022/04/18 10:58:24;;;;;;;3.90;1.13;;;;;;;;;;5070394;28;20517;-81
2022/04/18 11:00:53;;;;;;;8.23;0.98;;;;;;;;;;5067632;28;20037;-80
2022/04/18 11:03:40;;;;;;;11.70;1.92;;;;;;;;;;5083390;28;20044;-80
2022/04/18 11:06:17;;;;;;;13.38;1.67;;;;;;;;;;5069163;28;20028;-80
2022/04/18 11:09:02;;;;;;;7.50;1.30;;;;;;;;;;5082851;28;20082;-80
2022/04/18 11:12:00;;;;;;;9.07;2.95;;;;;;;;;;5066360;28;20032;-80
2022/04/18 11:14:29;;;;;;;7.80;1.92;;;;;;;;;;5053104;28;20453;-80
2022/04/18 11:16:58;;;;;;;5.30;1.60;;;;;;;;;;5086403;28;20033;-80
2022/04/18 11:19:32;;;;;;;8.48;1.23;;;;;;;;;;5049242;28;20039;-80
2022/04/18 11:21:58;;;;;;;8.88;1.80;;;;;;;;;;5069378;28;20039;-81
2022/04/18 11:24:41;;;;;;;10.18;1.80;;;;;;;;;;5062773;28;20398;-80
2022/04/18 11:27:12;;;;;;;5.90;1.20;;;;;;;;;;5085622;28;20063;-80
2022/04/18 11:29:40;;;;;;;7.82;1.60;;;;;;;;;;5069209;28;20031;-80
2022/04/18 11:32:06;;;;;;;8.60;1.73;;;;;;;;;;5058502;28;20021;-80
2022/04/18 11:34:34;;;;;;;11.63;1.30;;;;;;;;;;5067590;28;20044;-80
2022/04/18 11:37:01;;;;;;;9.48;1.88;;;;;;;;;;5069164;28;20032;-80
2022/04/18 11:39:48;;;;;;;9.20;1.33;;;;;;;;;;5069605;28;20093;-80
2022/04/18 11:42:22;;;;;;;7.90;1.52;;;;;;;;;;5078622;28;20480;-80
2022/04/18 11:44:49;;;;;;;12.68;1.27;;;;;;;;;;5066369;28;20108;-80
2022/04/18 11:47:20;;;;;;;3.45;1.13;;;;;;;;;;5068462;28;20025;-80
2022/04/18 11:49:46;;;;;;;7.03;1.25;;;;;;;;;;5066738;28;20441;-80
2022/04/18 11:52:22;;;;;;;5.70;1.02;;;;;;;;;;5067512;28;20028;-79
2022/04/18 11:55:14;;;;;;;5.03;0.93;;;;;;;;;;5066022;28;20502;-79
2022/04/18 11:57:41;;;;;;;5.28;1.40;;;;;;;;;;5069283;28;20032;-79
2022/04/18 12:00:15;;;;;;;12.75;1.30;;;;;;;;;;5066349;28;20051;-79
2022/04/18 12:08:12;;;;;;;17.13;2.00;;;;;;;;;;5071457;28;20395;-81
2022/04/18 12:10:42;;;;;;;7.28;1.55;;;;;;;;;;5067197;28;20052;-80
2022/04/18 12:13:11;;;;;;;9.65;1.85;;;;;;;;;;5069906;28;20103;-80
2022/04/18 12:15:37;;;;;;;7.82;1.58;;;;;;;;;;5069485;28;20047;-80
2022/04/18 12:18:17;;;;;;;10.90;1.70;;;;;;;;;;5069726;28;20079;-80
2022/04/18 12:20:45;;;;;;;11.38;1.15;;;;;;;;;;5067482;28;20028;-79
2022/04/18 12:23:23;;;;;;;16.98;1.60;;;;;;;;;;5068065;28;20416;-80
2022/04/18 12:25:52;;;;;;;7.53;1.52;;;;;;;;;;5069148;28;20040;-80
2022/04/18 12:28:23;;;;;;;12.82;1.38;;;;;;;;;;5069726;28;20036;-80
2022/04/18 12:30:50;;;;;;;9.55;2.42;;;;;;;;;;5063876;28;20609;-79
2022/04/18 12:33:19;;;;;;;5.63;1.33;;;;;;;;;;5083058;28;20763;-75
2022/04/18 12:35:51;;;;;;;8.30;1.13;;;;;;;;;;5067822;28;20036;-74
2022/04/18 12:38:18;;;;;;;9.23;1.13;;;;;;;;;;5057583;28;20029;-74
2022/04/18 12:41:03;;;;;;;7.05;0.80;;;;;;;;;;5067703;28;20747;-74
2022/04/18 12:43:30;;;;;;;5.13;0.90;;;;;;;;;;5048335;28;20566;-74
2022/04/18 12:45:59;;;;;;;5.22;1.17;;;;;;;;;;5069440;28;20530;-75
2022/04/18 12:48:25;;;;;;;5.50;0.98;;;;;;;;;;5068102;28;20028;-74
2022/04/18 12:50:52;;;;;;;1.75;0.90;;;;;;;;;;5063830;28;20081;-75
2022/04/18 12:53:18;;;;;;;12.77;1.58;;;;;;;;;;5067743;28;20032;-73
2022/04/18 12:55:44;;;;;;;7.82;1.25;;;;;;;;;;5067375;28;20054;-74
2022/04/18 12:58:18;;;;;;;4.57;1.00;;;;;;;;;;5069211;28;20028;-77
2022/04/18 13:00:50;;;;;;;11.30;1.40;;;;;;;;;;5064298;28;20032;-74
2022/04/18 13:03:17;;;;;;;10.20;1.20;;;;;;;;;;5048138;28;20044;-75
2022/04/18 13:05:48;;;;;;;8.38;1.25;;;;;;;;;;5063081;28;20040;-77
2022/04/18 13:08:16;;;;;;;11.60;1.65;;;;;;;;;;5068758;28;20646;-74
2022/04/18 13:10:42;;;;;;;5.55;1.38;;;;;;;;;;5066544;28;20676;-75
2022/04/18 13:13:12;;;;;;;4.38;1.10;;;;;;;;;;5082175;28;20020;-74
2022/04/18 13:15:41;;;;;;;8.23;1.60;;;;;;;;;;5068057;28;20051;-75
2022/04/18 13:18:12;;;;;;;3.45;1.00;;;;;;;;;;5067046;28;20100;-75
2022/04/18 13:20:39;;;;;;;7.80;0.90;;;;;;;;;;5065568;28;20044;-74
2022/04/18 13:23:06;;;;;;;1.73;0.88;;;;;;;;;;5068458;28;20020;-75
2022/04/18 13:25:32;;;;;;;6.90;0.77;;;;;;;;;;5058220;28;20411;-74
2022/04/18 13:27:58;;;;;;;1.88;0.60;;;;;;;;;;5063648;28;20028;-75
2022/04/18 13:30:25;;;;;;;10.18;0.82;;;;;;;;;;5057739;28;20043;-74
2022/04/18 13:32:52;;;;;;;6.45;0.70;;;;;;;;;;5087568;28;20494;-74
2022/04/18 13:35:19;;;;;;;2.97;0.70;;;;;;;;;;5064879;28;20115;-75
2022/04/18 13:37:47;;;;;;;2.25;0.90;;;;;;;;;;5068093;28;20028;-75
2022/04/18 13:40:14;;;;;;;1.00;0.77;;;;;;;;;;5064862;28;20016;-75
2022/04/18 13:42:41;;;;;;;2.72;0.80;;;;;;;;;;5082783;28;20028;-75
2022/04/18 13:45:08;;;;;;;7.32;0.95;;;;;;;;;;5055504;28;20128;-75
2022/04/18 13:47:38;;;;;;;6.40;0.57;;;;;;;;;;5058667;28;20074;-74
2022/04/18 13:50:05;;;;;;;2.67;0.85;;;;;;;;;;5062196;28;20036;-75
2022/04/18 13:52:31;;;;;;;1.50;0.50;;;;;;;;;;5045603;28;20036;-75
2022/04/18 13:54:56;;;;;;;5.88;1.13;;;;;;;;;;5068266;28;20484;-75
2022/04/18 13:57:22;;;;;;;5.45;1.45;;;;;;;;;;5053648;28;20485;-74
2022/04/18 13:59:47;;;;;;;7.93;1.08;;;;;;;;;;5048482;28;20036;-75
2022/04/18 14:02:13;;;;;;;7.00;1.85;;;;;;;;;;5066589;28;20028;-75
2022/04/18 14:04:39;;;;;;;8.30;1.08;;;;;;;;;;5064925;28;20115;-75
2022/04/18 14:07:04;;;;;;;3.20;1.17;;;;;;;;;;5066450;28;20495;-74
2022/04/18 14:09:30;;;;;;;1.20;0.70;;;;;;;;;;5070025;28;20102;-74
2022/04/18 14:11:56;;;;;;;2.97;1.25;;;;;;;;;;5070707;28;20044;-75
2022/04/18 14:22:36;;;;;;;5.55;1.75;;;;;;;;;;5085110;28;20090;-74
2022/04/18 14:25:02;;;;;;;3.50;1.20;;;;;;;;;;5059640;28;20517;-75
2022/04/18 14:27:27;;;;;;;1.92;1.10;;;;;;;;;;5064714;28;20145;-75
2022/04/18 14:29:54;;;;;;;4.63;1.05;;;;;;;;;;5068064;28;20910;-75
2022/04/18 14:32:21;;;;;;;2.60;0.98;;;;;;;;;;5057279;28;20116;-75
2022/04/18 14:34:46;;;;;;;0.80;0.60;;;;;;;;;;5069786;28;20032;-80
2022/04/18 14:37:12;;;;;;;3.25;0.88;;;;;;;;;;5060515;28;20612;-80
2022/04/18 14:39:37;;;;;;;3.08;0.90;;;;;;;;;;5070858;28;20025;-80
2022/04/18 14:42:03;;;;;;;3.97;0.90;;;;;;;;;;5069684;28;20154;-80
2022/04/18 14:44:28;;;;;;;6.45;1.08;;;;;;;;;;5071591;28;20043;-80
2022/04/18 14:46:54;;;;;;;2.15;1.42;;;;;;;;;;5068979;28;20048;-80
2022/04/18 14:49:19;;;;;;;2.05;1.00;;;;;;;;;;5069614;28;20487;-80
2022/04/18 14:51:45;;;;;;;5.10;1.20;;;;;;;;;;5064308;28;20032;-80
2022/04/18 14:54:10;;;;;;;4.68;1.38;;;;;;;;;;5053135;28;20093;-81
2022/04/18 14:56:36;;;;;;;2.33;0.93;;;;;;;;;;5067437;28;20028;-79
2022/04/18 14:59:02;;;;;;;4.30;1.15;;;;;;;;;;5070779;28;20058;-80
2022/04/18 15:01:27;;;;;;;4.05;1.20;;;;;;;;;;5052793;28;20097;-80
2022/04/18 15:03:54;;;;;;;4.22;1.38;;;;;;;;;;5063305;28;20037;-80
2022/04/18 15:06:20;;;;;;;4.65;1.25;;;;;;;;;;5069885;28;20043;-81
2022/04/18 15:08:46;;;;;;;3.50;1.50;;;;;;;;;;5064730;28;20032;-79
2022/04/18 15:11:12;;;;;;;3.22;0.88;;;;;;;;;;5065787;28;20036;-80
2022/04/18 15:13:37;;;;;;;3.90;1.00;;;;;;;;;;5084116;28;20031;-80